createdAt,value
2023-04-08T00:00:17.069Z,46.70
2023-04-08T00:05:18.750Z,55.20
2023-04-08T00:10:20.924Z,53.80
2023-04-08T00:15:22.638Z,68.20
2023-04-08T00:20:25.325Z,63.70
2023-04-08T00:25:27.133Z,63.70
2023-04-08T00:30:29.122Z,65.90
2023-04-08T00:35:30.779Z,57.70
2023-04-08T00:45:34.285Z,52.70
2023-04-08T00:50:36.342Z,46.90
2023-04-08T00:55:38.011Z,42.80
2023-04-08T01:00:45.900Z,43.10
2023-04-08T01:06:15.807Z,41.10
2023-04-08T01:11:18.465Z,35.10
2023-04-08T01:16:22.827Z,34.90
2023-04-08T01:21:27.214Z,29.80
2023-04-08T01:26:29.924Z,28.40
2023-04-08T01:31:32.516Z,30.20
2023-04-08T01:36:37.332Z,35.00
2023-04-08T01:41:41.171Z,28.60
2023-04-08T01:46:43.574Z,21.90
2023-04-08T01:51:48.386Z,16.90
2023-04-08T01:56:52.682Z,20.40
2023-04-08T02:01:57.185Z,25.30
2023-04-08T02:06:59.579Z,26.90
2023-04-08T02:12:01.773Z,28.30
2023-04-08T02:17:12.465Z,32.30
2023-04-08T02:22:24.338Z,25.60
2023-04-08T02:27:29.578Z,24.20
2023-04-08T02:32:33.228Z,21.70
2023-04-08T02:37:35.319Z,24.30
2023-04-08T02:42:36.993Z,27.10
2023-04-08T02:52:41.288Z,30.40
2023-04-08T02:57:43.186Z,29.00
2023-04-08T03:02:45.318Z,30.30
2023-04-08T03:07:47.242Z,32.20
2023-04-08T03:12:49.112Z,30.40
2023-04-08T03:17:51.023Z,30.00
2023-04-08T03:22:52.749Z,32.80
2023-04-08T03:27:55.201Z,29.80
2023-04-08T03:32:57.110Z,29.30
2023-04-08T03:37:59.310Z,31.30
2023-04-08T03:43:01.221Z,31.60
2023-04-08T03:48:03.243Z,33.30
2023-04-08T03:53:05.091Z,33.30
2023-04-08T03:58:06.861Z,39.90
2023-04-08T04:07:11.991Z,36.70
2023-04-08T04:12:13.689Z,34.10
2023-04-08T04:17:15.775Z,31.20
2023-04-08T04:22:17.486Z,26.60
2023-04-08T04:27:19.127Z,27.90
2023-04-08T04:42:24.193Z,28.60
2023-04-08T04:47:26.417Z,29.40
2023-04-08T04:52:28.026Z,29.70
2023-04-08T05:02:31.568Z,34.90
2023-04-08T05:07:37.026Z,27.60
2023-04-08T05:12:38.860Z,27.60
2023-04-08T05:17:40.900Z,30.50
2023-04-08T05:22:44.587Z,28.00
2023-04-08T05:27:46.990Z,28.10
2023-04-08T05:32:48.833Z,29.50
2023-04-08T05:37:50.628Z,33.20
2023-04-08T05:42:52.268Z,29.30
2023-04-08T05:47:54.279Z,28.10
2023-04-08T05:52:55.955Z,31.60
2023-04-08T06:03:00.927Z,24.20
2023-04-08T06:08:03.020Z,27.40
2023-04-08T06:13:04.669Z,23.80
2023-04-08T06:18:06.849Z,24.80
2023-04-08T06:23:08.592Z,27.50
2023-04-08T06:28:10.329Z,28.80
2023-04-08T06:33:11.957Z,26.00
2023-04-08T06:43:15.350Z,25.80
2023-04-08T06:48:17.029Z,24.20
2023-04-08T06:53:18.700Z,22.50
2023-04-08T06:58:20.606Z,23.50
2023-04-08T07:03:23.267Z,18.90
2023-04-08T07:08:25.092Z,20.00
2023-04-08T07:13:26.845Z,19.00
2023-04-08T07:18:29.239Z,18.90
2023-04-08T07:23:30.958Z,17.40
2023-04-08T07:28:32.764Z,18.20
2023-04-08T07:33:34.479Z,17.40
2023-04-08T07:38:37.845Z,17.60
2023-04-08T07:43:39.538Z,19.30
2023-04-08T07:48:41.176Z,14.40
2023-04-08T07:53:43.005Z,18.30
2023-04-08T07:58:44.849Z,17.80
2023-04-08T08:03:48.069Z,13.40
2023-04-08T08:08:50.131Z,14.50
2023-04-08T08:13:52.104Z,15.50
2023-04-08T08:18:54.034Z,13.90
2023-04-08T08:23:56.932Z,12.20
2023-04-08T08:28:58.675Z,10.10
2023-04-08T08:34:00.408Z,12.50
2023-04-08T08:39:02.302Z,11.50
2023-04-08T08:44:08.748Z,9.30
2023-04-08T08:49:11.747Z,10.20
2023-04-08T08:54:16.112Z,12.50
2023-04-08T08:59:17.784Z,10.00
2023-04-08T09:04:22.612Z,10.60
2023-04-08T09:09:25.578Z,11.10
2023-04-08T09:14:27.275Z,10.40
2023-04-08T09:19:28.968Z,10.60
2023-04-08T09:24:31.297Z,11.80
2023-04-08T09:29:36.407Z,10.60
2023-04-08T09:34:40.355Z,13.00
2023-04-08T09:39:42.122Z,11.30
2023-04-08T09:44:47.215Z,13.50
2023-04-08T09:49:58.504Z,11.60
2023-04-08T09:55:04.563Z,11.70
2023-04-08T10:00:17.762Z,11.10
2023-04-08T10:05:21.143Z,12.80
2023-04-08T10:10:23.743Z,12.40
2023-04-08T10:15:33.603Z,12.30
2023-04-08T10:20:38.353Z,13.70
2023-04-08T10:25:45.302Z,13.20
2023-04-08T10:30:48.604Z,15.00
2023-04-08T10:35:54.696Z,10.80
2023-04-08T10:40:56.800Z,13.70
2023-04-08T10:45:58.665Z,13.70
2023-04-08T10:51:05.279Z,11.20
2023-04-08T10:56:18.286Z,11.50
2023-04-08T11:01:20.206Z,11.70
2023-04-08T11:06:22.175Z,14.40
2023-04-08T11:11:29.444Z,10.80
2023-04-08T11:16:32.494Z,10.30
2023-04-08T11:21:38.717Z,10.00
2023-04-08T11:26:42.074Z,9.70
2023-04-08T11:31:44.301Z,11.90
2023-04-08T11:36:46.418Z,10.80
2023-04-08T11:41:48.235Z,10.10
2023-04-08T11:46:55.603Z,10.40
2023-04-08T11:51:59.358Z,10.90
2023-04-08T11:57:02.972Z,9.60
2023-04-08T12:02:05.297Z,9.90
2023-04-08T12:07:07.375Z,15.70
2023-04-08T12:12:09.038Z,11.30
2023-04-08T12:17:10.678Z,12.10
2023-04-08T12:22:12.474Z,13.80
2023-04-08T12:27:14.247Z,13.90
2023-04-08T12:32:16.340Z,17.50
2023-04-08T12:37:18.214Z,25.50
2023-04-08T12:42:19.928Z,23.70
2023-04-08T12:47:22.599Z,18.50
2023-04-08T12:52:25.397Z,13.30
2023-04-08T12:57:28.447Z,16.70
2023-04-08T13:02:30.744Z,14.40
2023-04-08T13:07:32.528Z,18.90
2023-04-08T13:12:34.186Z,19.30
2023-04-08T13:17:36.150Z,19.40
2023-04-08T13:22:37.991Z,17.50
2023-04-08T13:27:39.686Z,18.10
2023-04-08T13:32:41.573Z,19.00
2023-04-08T13:37:43.510Z,15.70
2023-04-08T13:42:45.260Z,16.90
2023-04-08T13:47:47.257Z,20.70
2023-04-08T13:52:48.965Z,19.70
2023-04-08T13:57:50.660Z,19.30
2023-04-08T14:02:52.834Z,21.00
2023-04-08T14:07:54.625Z,19.00
2023-04-08T14:12:56.286Z,26.60
2023-04-08T14:17:57.977Z,21.50
2023-04-08T14:22:59.720Z,24.60
2023-04-08T14:28:01.633Z,21.50
2023-04-08T14:33:05.304Z,28.30
2023-04-08T14:38:07.198Z,39.10
2023-04-08T14:43:08.914Z,35.80
2023-04-08T14:48:11.975Z,36.60
2023-04-08T14:53:13.683Z,36.50
2023-04-08T14:58:15.570Z,39.60
2023-04-08T15:03:18.840Z,40.90
2023-04-08T15:08:30.294Z,42.10
2023-04-08T15:13:32.018Z,40.90
2023-04-08T15:18:33.749Z,42.90
2023-04-08T15:23:35.522Z,37.50
2023-04-08T15:28:38.278Z,41.60
2023-04-08T15:33:41.558Z,39.30
2023-04-08T15:38:43.258Z,35.90
2023-04-08T15:43:46.175Z,32.00
2023-04-08T15:48:49.303Z,30.80
2023-04-08T15:53:51.673Z,67.80
2023-04-08T15:58:53.664Z,54.60
2023-04-08T16:03:55.874Z,48.30
2023-04-08T16:08:57.725Z,51.80
2023-04-08T16:13:59.410Z,42.80
2023-04-08T16:19:02.304Z,42.00
2023-04-08T16:24:05.743Z,40.40
2023-04-08T16:29:07.508Z,44.20
2023-04-08T16:34:09.161Z,47.00
2023-04-08T16:39:11.151Z,49.50
2023-04-08T16:44:12.926Z,51.80
2023-04-08T16:49:16.213Z,58.30
2023-04-08T16:54:19.313Z,58.30
2023-04-08T16:59:21.171Z,53.10
2023-04-08T17:04:22.854Z,68.30
2023-04-08T17:09:24.671Z,65.60
2023-04-08T17:14:27.373Z,68.60
2023-04-08T17:19:29.327Z,61.10
2023-04-08T17:24:31.003Z,67.70
2023-04-08T17:29:32.726Z,63.60
2023-04-08T17:34:34.437Z,61.30
2023-04-08T17:39:40.706Z,57.30
2023-04-08T17:44:42.774Z,62.30
2023-04-08T17:49:44.514Z,61.90
2023-04-08T17:54:46.437Z,65.20
2023-04-08T17:59:48.113Z,67.70
2023-04-08T18:04:51.887Z,64.70
2023-04-08T18:09:53.686Z,59.50
2023-04-08T18:14:55.401Z,52.80
2023-04-08T18:19:58.545Z,51.00
2023-04-08T18:25:00.712Z,61.50
2023-04-08T18:30:02.495Z,60.90
2023-04-08T18:35:04.373Z,53.50
2023-04-08T18:40:07.532Z,62.20
2023-04-08T18:45:09.668Z,64.50
2023-04-08T18:50:11.385Z,63.00
2023-04-08T18:55:13.259Z,68.20
2023-04-08T19:00:15.484Z,67.40
2023-04-08T19:05:17.924Z,65.00
2023-04-08T19:10:20.831Z,59.40
2023-04-08T19:15:22.625Z,60.10
2023-04-08T19:20:24.649Z,57.60
2023-04-08T19:25:26.586Z,63.40
2023-04-08T19:30:28.318Z,59.90
2023-04-08T19:35:30.351Z,62.20
2023-04-08T19:40:32.166Z,61.00
2023-04-08T19:45:34.410Z,68.10
2023-04-08T19:50:39.410Z,60.60
2023-04-08T19:55:41.298Z,70.60
2023-04-08T20:01:04.016Z,62.00
2023-04-08T20:06:05.710Z,62.90
2023-04-08T20:11:07.361Z,57.30
2023-04-08T20:16:09.104Z,58.70
2023-04-08T20:21:13.968Z,54.60
2023-04-08T20:26:16.738Z,53.80
2023-04-08T20:31:19.248Z,55.20
2023-04-08T20:36:22.114Z,55.30
2023-04-08T20:41:25.709Z,58.00
2023-04-08T20:46:27.624Z,52.70
2023-04-08T20:51:29.285Z,53.70
2023-04-08T20:56:31.017Z,50.80
2023-04-08T21:01:32.797Z,52.80
2023-04-08T21:06:34.837Z,52.40
2023-04-08T21:11:37.162Z,52.50
2023-04-08T21:16:38.903Z,52.60
2023-04-08T21:21:40.635Z,53.30
2023-04-08T21:26:42.304Z,48.20
2023-04-08T21:31:44.029Z,48.10
2023-04-08T21:36:46.085Z,80.90
2023-04-08T21:41:49.292Z,155.10
2023-04-08T21:46:51.300Z,108.60
2023-04-08T22:02:16.477Z,77.10
2023-04-08T22:07:18.430Z,92.70
2023-04-08T22:12:20.515Z,83.10
2023-04-08T22:17:22.209Z,85.40
2023-04-08T22:22:23.932Z,105.40
2023-04-08T22:27:28.252Z,93.60
2023-04-08T22:32:30.023Z,83.40
2023-04-08T22:37:32.245Z,87.20
2023-04-08T22:42:33.903Z,83.70
2023-04-08T22:47:36.449Z,81.00
2023-04-08T22:52:38.170Z,71.40
2023-04-08T22:57:39.834Z,53.20
2023-04-08T23:02:41.608Z,44.90
2023-04-08T23:07:43.722Z,39.10
